Page Field
KFMY : now visible

Airfield :











YOU CAN JOIN US ON...

 
LOGIN :

Register | Disclaimer

   EN    FR    IT 

 









Legend :    VFR   Marginal VFR   IFR   Intensive IFR   Very Intensive IFR
Visi :
Ceiling :
>= 8 km
>= 3000ft
5 to 8 km
1000 to 3000 ft
1500m to 5 km
500 to 1000 ft
800 to 1500m
200 to 500 ft
< 800m
< 200 ft
Symbols :   Thunderstorms  Fog  Heavy snow  Heavy precipitations  Wind > 20 kt






- Airport Elevation : 17 ft


KFMY - Page Field

CURRENT METAR :
  • 082253Z AUTO 22005KT 10SM CLR 24/20 A3002 RMK AO2 SLP167 T02440200

EXPIRED METARs :
  • 082153Z AUTO 21008KT 10SM CLR 26/20 A3001 RMK AO2 SLP165 T02560200
  • 082053Z AUTO 21008G18KT 10SM CLR 27/20 A3000 RMK AO2 SLP162 T02670200 56015

TAF KFMY
Valid from the 08 at 18:00 until the 09 at 18:00 UTC


081734Z 0818/0918 23008KT P6SM SCT025 SCT250
FM090300 VRB05KT P6SM SCT010 SCT250
FM091000 VRB03KT 6SM BR SCT010 SCT250
TEMPO 0910/0913 3SM BR
FM091500 14005KT P6SM SCT020 SCT250
KZMA FIR / North America



MET'MAP, your aeronautical weather chart ! - Copyright ORBIFLY December 2007 - Disclaimer

ORBIFLY MET'MAP TEAM :

Programming & Development : Alexandra Zaïnal
Concept & original design : Baudouin d'Aumeries
Assistance for programming : Marc-Olivier Méhu
Technical & hardware support : Manuel Goepfert

Contact : metmap@orbifly.com




SOURCES & CREDITS :

   NOAA       Earth
Advisory